Погода METAR - Красноярск

Кемерово, Новокузнецк Абакан, Красноярск, Новосибирск
Код METAR: UNKL 092030Z 12001MPS CAVOK 07/04 Q1001 R11/CLRD// NOSIG RMK QFE726

Погода - Сейчас

Время: 2026-05-10 03:30, местное
Направление ветра: Юго-восток (120°)
Скорость ветра: 1 м/с
Видимость: более 10км, отсутствие осадков и облаков ниже 1500 м
Температура: 7°C
Точка росы: 4°C
Атмосферное давление: 1001 гПа

Архив погоды

Время, местное Направление Скорость, м/с Температура, °C Точка росы, °C Давление, гПа Видимость
2026-05-10 03:30 ЮВ (120°) 1 7 4 1001 более 10км, отсутствие осадков и облаков ниже 1500 м
2026-05-10 03:00 ЮВ (120°) 2 8 4 1002 более 10км, отсутствие осадков и облаков ниже 1500 м
2026-05-08 14:30 ЗЮЗ (250°) 4 22 8 1010 более 10км, отсутствие осадков и облаков ниже 1500 м
2026-05-08 07:00 ЮЗ (210°) 5 13 8 1013 более 10км, отсутствие осадков и облаков ниже 1500 м
2026-05-08 05:30 ЮЮЗ (200°) 3 6 6 1013 более 10км, отсутствие осадков и облаков ниже 1500 м
2026-05-07 22:30 ЗЮЗ (240°) 5 14 9 1014 более 10км, отсутствие осадков и облаков ниже 1500 м
2026-05-02 08:30 Переменный 1 12 -2 1013 более 10км, отсутствие осадков и облаков ниже 1500 м
2026-05-01 18:00 ЗСЗ (290°) 3 22 -9 1018 более 10км, отсутствие осадков и облаков ниже 1500 м
2026-05-01 10:00 В (90°) 2 16 0 1021 менее 0.04 км
2026-04-29 20:00 ЗЮЗ (260°) 3 13 -4 1026 более 10км, отсутствие осадков и облаков ниже 1500 м
2026-04-27 14:30 ЗЮЗ (260°) 8 15 9 1015 более 10км
2026-04-25 10:00 ЮЗ (230°) 5 10 5 1015 более 10км, отсутствие осадков и облаков ниже 1500 м
2026-04-22 22:00 Штиль 0 -3 -8 1018 более 10км, отсутствие осадков и облаков ниже 1500 м
2026-04-19 23:00 СЗ (300°) 4 -3 -4 1015 менее 2 км
2026-04-19 20:10 ЗСЗ (290°) 5 -1 -2 1015 менее 2 км
2026-04-18 14:30 ЗЮЗ (240°) 8, порывы до 14 -3 -14 1025 более 10км, отсутствие осадков и облаков ниже 1500 м
2026-04-18 13:00 ЗЮЗ (250°) 8, порывы до 13 -3 -14 1024 более 10км, отсутствие осадков и облаков ниже 1500 м
2026-04-15 06:30 ЮЮЗ (200°) 2 -6 -10 1016 более 10км, отсутствие осадков и облаков ниже 1500 м
2026-04-13 17:30 З (280°) 5 -1 -5 1012 более 10км
2026-04-13 13:00 З (280°) 8 1 -4 1009 более 10км
2026-04-13 07:00 З (270°) 4 0 -2 1007 более 10км
2026-04-11 06:30 З (280°) 4 -10 -14 1024 более 10км
2026-04-09 07:00 З (280°) 10, порывы до 16 -1 -5 1009 менее 9 км
2026-04-08 13:30 ЮЗ (210°) 4, порывы до 10 11 -3 1002 менее 0.16 км
2026-04-07 03:30 СЗ (310°) 4 0 -2 1012 более 10км
2026-04-06 09:30 ЗЮЗ (250°) 7, порывы до 12 9 6 997 менее 9 км
2026-04-04 09:00 СЗ (310°) 4 4 -3 1015 более 10км, отсутствие осадков и облаков ниже 1500 м
2026-04-03 08:00 ЗЮЗ (260°) 5 3 -3 1009 более 10км, отсутствие осадков и облаков ниже 1500 м
2026-04-03 01:30 ЮЗ (210°) 3 4 -4 1011 более 10км, отсутствие осадков и облаков ниже 1500 м
2026-03-29 16:00 ЮЗ (220°) 6, порывы до 11 7 1 1006 более 10км
2026-03-28 11:00 ЗЮЗ (250°) 4 6 -2 1023 менее 0.2 км
2026-03-28 08:00 ЗЮЗ (260°) 5 3 -1 1024 более 10км, отсутствие осадков и облаков ниже 1500 м
2026-03-28 07:30 ЗЮЗ (260°) 4 3 -1 1024 более 10км, отсутствие осадков и облаков ниже 1500 м
2026-03-26 19:30 ЗЮЗ (250°) 3 4 -2 1019 более 10км, отсутствие осадков и облаков ниже 1500 м
2026-03-26 07:00 З (270°) 8 3 -3 1017 более 10км, отсутствие осадков и облаков ниже 1500 м
2026-03-25 22:00 ЗЮЗ (240°) 7, порывы до 13 5 -6 1014 более 10км, отсутствие осадков и облаков ниже 1500 м
2026-03-25 19:30 ЗЮЗ (240°) 7, порывы до 13 5 -6 1014 более 10км, отсутствие осадков и облаков ниже 1500 м
2026-03-25 02:00 ЗЮЗ (250°) 5 0 -8 1018 более 10км, отсутствие осадков и облаков ниже 1500 м
2026-03-24 00:00 ЮЗ (220°) 4 1 -7 1007 более 10км, отсутствие осадков и облаков ниже 1500 м
2026-03-22 11:30 ЗЮЗ (240°) 6, порывы до 12 5 -8 1007 более 10км, отсутствие осадков и облаков ниже 1500 м
2026-03-22 01:00 ЗЮЗ (240°) 4 3 -5 1011 более 10км, отсутствие осадков и облаков ниже 1500 м
2026-03-21 03:30 ЗЮЗ (250°) 7 0 -3 1011 менее 8 км
2026-03-20 19:30 ЮЗ (210°) 3 -1 -4 1011 менее 8 км
2026-03-17 22:00 ЗЮЗ (250°) 6 0 -9 1020 более 10км
2026-03-16 16:00 ЗЮЗ (250°) 6 -12 -24 1033 более 10км, отсутствие осадков и облаков ниже 1500 м
2026-03-14 10:30 З (270°) 6 -10 -17 1030 более 10км, отсутствие осадков и облаков ниже 1500 м
2026-03-14 03:00 ЗЮЗ (260°) 5 -10 -15 1024 более 10км, отсутствие осадков и облаков ниже 1500 м
2026-03-14 01:00 З (270°) 8, порывы до 13 -9 -13 1021 менее 7 км